createdAt,value
2022-10-14T00:01:23.825Z,41.73
2022-10-14T00:03:53.141Z,42.30
2022-10-14T00:06:25.706Z,39.70
2022-10-14T00:08:53.946Z,42.87
2022-10-14T00:11:24.859Z,41.33
2022-10-14T00:13:56.205Z,41.37
2022-10-14T00:16:27.400Z,42.47
2022-10-14T00:18:55.540Z,41.50
2022-10-14T00:21:25.280Z,40.20
2022-10-14T00:23:53.432Z,41.33
2022-10-14T00:26:24.412Z,42.47
2022-10-14T00:28:54.101Z,44.13
2022-10-14T00:31:22.471Z,41.17
2022-10-14T00:33:50.835Z,40.70
2022-10-14T00:36:21.381Z,40.53
2022-10-14T00:38:51.963Z,39.97
2022-10-14T00:41:26.102Z,42.20
2022-10-14T00:44:00.434Z,39.77
2022-10-14T00:46:30.757Z,41.17
2022-10-14T00:49:00.054Z,46.53
2022-10-14T00:51:28.874Z,52.33
2022-10-14T00:53:58.447Z,42.07
2022-10-14T00:56:30.570Z,49.83
2022-10-14T00:58:59.678Z,48.20
2022-10-14T01:01:27.896Z,52.83
2022-10-14T01:03:56.250Z,44.07
2022-10-14T01:06:43.489Z,37.53
2022-10-14T01:09:22.310Z,35.23
2022-10-14T01:12:27.574Z,35.10
2022-10-14T01:15:04.689Z,32.07
2022-10-14T01:17:49.256Z,30.70
2022-10-14T01:20:48.015Z,37.80
2022-10-14T01:24:01.206Z,34.63
2022-10-14T01:26:58.005Z,34.73
2022-10-14T01:30:13.755Z,26.93
2022-10-14T01:32:54.114Z,29.43
2022-10-14T01:35:32.375Z,31.10
2022-10-14T01:38:05.219Z,28.57
2022-10-14T01:40:37.992Z,36.57
2022-10-14T01:43:08.053Z,29.97
2022-10-14T01:45:42.431Z,28.30
2022-10-14T01:48:12.638Z,32.90
2022-10-14T01:50:44.338Z,29.33
2022-10-14T01:53:17.897Z,33.07
2022-10-14T01:55:48.529Z,30.60
2022-10-14T01:58:18.997Z,25.90
2022-10-14T02:00:48.856Z,30.70
2022-10-14T02:03:16.967Z,29.03
2022-10-14T02:05:53.378Z,28.37
2022-10-14T02:08:30.199Z,28.80
2022-10-14T02:11:12.551Z,25.83
2022-10-14T02:14:11.195Z,22.97
2022-10-14T02:16:50.059Z,25.10
2022-10-14T02:19:29.293Z,32.77
2022-10-14T02:22:04.847Z,23.33
2022-10-14T02:24:37.203Z,23.47
2022-10-14T02:27:10.651Z,29.93
2022-10-14T02:29:41.948Z,29.97
2022-10-14T02:32:12.448Z,29.90
2022-10-14T02:34:42.359Z,31.00
2022-10-14T02:37:11.552Z,32.13
2022-10-14T02:39:45.429Z,39.03
2022-10-14T02:42:13.618Z,28.37
2022-10-14T02:44:54.501Z,24.40
2022-10-14T02:47:24.894Z,23.47
2022-10-14T02:49:53.724Z,19.63
2022-10-14T02:52:22.419Z,23.13
2022-10-14T02:54:50.743Z,21.57
2022-10-14T02:57:18.818Z,19.07
2022-10-14T02:59:46.964Z,19.20
2022-10-14T03:02:15.177Z,19.20
2022-10-14T03:04:44.728Z,25.13
2022-10-14T03:07:12.894Z,20.27
2022-10-14T03:09:40.972Z,19.57
2022-10-14T03:12:09.250Z,18.23
2022-10-14T03:14:37.378Z,18.50
2022-10-14T03:17:06.108Z,25.60
2022-10-14T03:19:34.178Z,26.90
2022-10-14T03:22:03.646Z,22.57
2022-10-14T03:24:31.766Z,22.20
2022-10-14T03:26:59.895Z,20.87
2022-10-14T03:29:27.974Z,19.30
2022-10-14T03:31:56.175Z,15.10
2022-10-14T03:34:24.393Z,16.90
2022-10-14T03:36:52.476Z,18.40
2022-10-14T03:39:21.932Z,14.10
2022-10-14T03:41:50.011Z,14.67
2022-10-14T03:44:18.087Z,20.90
2022-10-14T03:46:46.258Z,27.80
2022-10-14T03:49:14.470Z,25.90
2022-10-14T03:51:42.534Z,22.83
2022-10-14T03:54:10.649Z,20.73
2022-10-14T03:56:40.099Z,17.73
2022-10-14T03:59:08.260Z,19.57
2022-10-14T04:01:36.385Z,20.67
2022-10-14T04:04:04.590Z,19.87
2022-10-14T04:06:32.691Z,19.53
2022-10-14T04:09:00.736Z,22.77
2022-10-14T04:11:28.824Z,24.67
2022-10-14T04:14:01.177Z,25.47
2022-10-14T04:16:29.250Z,17.33
2022-10-14T04:18:58.680Z,21.10
2022-10-14T04:21:26.763Z,20.47
2022-10-14T04:23:54.880Z,18.50
2022-10-14T04:26:22.943Z,17.13
2022-10-14T04:28:51.153Z,16.13
2022-10-14T04:31:22.541Z,17.17
2022-10-14T04:33:50.636Z,15.23
2022-10-14T04:36:18.777Z,20.40
2022-10-14T04:38:46.966Z,17.60
2022-10-14T04:41:15.054Z,18.83
2022-10-14T04:43:43.177Z,20.20
2022-10-14T04:46:11.206Z,18.00
2022-10-14T04:48:40.642Z,15.83
2022-10-14T04:51:08.755Z,17.23
2022-10-14T04:53:36.795Z,15.13
2022-10-14T04:56:05.249Z,15.60
2022-10-14T04:58:33.324Z,17.10
2022-10-14T05:01:01.490Z,15.90
2022-10-14T05:03:29.631Z,16.67
2022-10-14T05:06:00.636Z,18.47
2022-10-14T05:08:28.865Z,16.73
2022-10-14T05:10:56.953Z,17.27
2022-10-14T05:13:25.062Z,16.37
2022-10-14T05:15:53.190Z,19.47
2022-10-14T05:18:21.252Z,16.33
2022-10-14T05:20:49.530Z,19.27
2022-10-14T05:23:19.502Z,17.03
2022-10-14T05:25:48.140Z,19.13
2022-10-14T05:28:16.342Z,19.53
2022-10-14T05:30:44.825Z,20.13
2022-10-14T05:33:13.440Z,17.93
2022-10-14T05:35:58.169Z,18.73
2022-10-14T05:38:28.800Z,17.77
2022-10-14T05:40:58.627Z,13.63
2022-10-14T05:43:31.815Z,16.53
2022-10-14T05:46:00.617Z,16.47
2022-10-14T05:48:28.865Z,14.47
2022-10-14T05:51:01.350Z,16.43
2022-10-14T05:53:32.445Z,15.30
2022-10-14T05:56:08.817Z,16.20
2022-10-14T05:58:36.960Z,15.43
2022-10-14T06:01:08.003Z,16.57
2022-10-14T06:03:36.548Z,16.80
2022-10-14T06:06:08.424Z,15.53
2022-10-14T06:08:37.957Z,15.90
2022-10-14T06:11:07.426Z,17.00
2022-10-14T06:13:36.272Z,17.53
2022-10-14T06:16:05.649Z,19.50
2022-10-14T06:18:33.851Z,19.63
2022-10-14T06:21:02.401Z,20.37
2022-10-14T06:23:30.612Z,19.77
2022-10-14T06:26:00.177Z,20.90
2022-10-14T06:28:28.395Z,21.83
2022-10-14T06:30:56.811Z,20.50
2022-10-14T06:33:24.976Z,21.30
2022-10-14T06:35:53.077Z,20.77
2022-10-14T06:38:21.128Z,21.30
2022-10-14T06:40:52.449Z,22.10
2022-10-14T06:43:22.786Z,22.93
2022-10-14T06:45:52.667Z,21.97
2022-10-14T06:48:20.725Z,21.63
2022-10-14T06:50:48.808Z,22.23
2022-10-14T06:53:16.854Z,21.50
2022-10-14T06:55:45.134Z,22.27
2022-10-14T06:58:13.168Z,22.70
2022-10-14T07:00:47.200Z,22.17
2022-10-14T07:03:16.377Z,24.07
2022-10-14T07:05:44.511Z,24.47
2022-10-14T07:08:15.293Z,24.73
2022-10-14T07:10:44.028Z,24.90
2022-10-14T07:13:12.120Z,23.63
2022-10-14T07:15:42.022Z,24.80
2022-10-14T07:18:10.515Z,24.07
2022-10-14T07:20:38.607Z,23.67
2022-10-14T07:23:06.695Z,24.97
2022-10-14T07:25:34.812Z,23.23
2022-10-14T07:28:02.940Z,23.67
2022-10-14T07:30:31.098Z,24.57
2022-10-14T07:33:02.594Z,22.73
2022-10-14T07:35:30.992Z,22.53
2022-10-14T07:38:00.654Z,23.10
2022-10-14T07:40:29.031Z,21.87
2022-10-14T07:42:57.334Z,23.77
2022-10-14T07:45:25.513Z,21.67
2022-10-14T07:47:53.635Z,21.23
2022-10-14T07:50:23.184Z,21.13
2022-10-14T07:52:51.287Z,20.30
2022-10-14T07:55:19.457Z,20.93
2022-10-14T07:57:47.614Z,20.93
2022-10-14T08:00:15.999Z,21.37
2022-10-14T08:02:44.967Z,20.33
2022-10-14T08:05:36.459Z,21.30
2022-10-14T08:08:02.437Z,20.23
2022-10-14T08:10:32.166Z,19.63
2022-10-14T08:13:00.267Z,19.70
2022-10-14T08:15:29.945Z,19.90
2022-10-14T08:17:58.050Z,19.73
2022-10-14T08:20:26.249Z,20.13
2022-10-14T08:22:54.328Z,19.57
2022-10-14T08:25:23.835Z,19.67
2022-10-14T08:27:54.115Z,19.07
2022-10-14T08:30:22.664Z,19.27
2022-10-14T08:32:51.112Z,18.40
2022-10-14T08:35:19.340Z,17.60
2022-10-14T08:37:58.087Z,17.47
2022-10-14T08:40:29.919Z,16.47
2022-10-14T08:43:04.442Z,16.30
2022-10-14T08:45:38.672Z,16.60
2022-10-14T08:48:14.067Z,17.03
2022-10-14T08:50:47.960Z,16.70
2022-10-14T08:53:19.577Z,16.23
2022-10-14T08:55:52.689Z,17.63
2022-10-14T09:01:08.708Z,17.77
2022-10-14T09:03:39.538Z,16.97
2022-10-14T09:06:15.003Z,17.93
2022-10-14T09:08:46.219Z,17.17
2022-10-14T09:11:19.683Z,18.00
2022-10-14T09:13:52.017Z,16.67
2022-10-14T09:16:23.605Z,18.70
2022-10-14T09:18:55.875Z,17.13
2022-10-14T09:21:51.546Z,17.00
2022-10-14T09:24:23.715Z,17.40
2022-10-14T09:26:58.551Z,17.70
2022-10-14T09:29:29.421Z,17.63
2022-10-14T09:32:01.067Z,17.93
2022-10-14T09:34:35.029Z,17.90
2022-10-14T09:37:24.645Z,18.53
2022-10-14T09:39:55.864Z,17.80
2022-10-14T09:42:29.560Z,16.53
2022-10-14T09:45:10.558Z,17.90
2022-10-14T09:47:47.017Z,17.47
2022-10-14T09:50:24.974Z,17.37
2022-10-14T09:52:59.236Z,18.60
2022-10-14T09:55:27.376Z,17.30
2022-10-14T09:58:14.067Z,18.23
2022-10-14T10:00:43.127Z,17.23
2022-10-14T10:03:28.016Z,17.17
2022-10-14T10:06:06.723Z,16.63
2022-10-14T10:08:39.023Z,17.47
2022-10-14T10:11:10.570Z,18.57
2022-10-14T10:13:44.629Z,17.23
2022-10-14T10:16:26.113Z,19.23
2022-10-14T10:18:57.209Z,18.77
2022-10-14T10:21:27.535Z,19.03
2022-10-14T10:23:59.158Z,18.73
2022-10-14T10:26:30.628Z,20.63
2022-10-14T10:29:02.663Z,20.57
2022-10-14T10:32:02.638Z,20.60
2022-10-14T10:35:12.329Z,21.20
2022-10-14T10:37:50.477Z,19.40
2022-10-14T10:40:33.151Z,20.17
2022-10-14T10:43:20.229Z,19.47
2022-10-14T10:46:05.328Z,20.13
2022-10-14T10:48:43.829Z,20.80
2022-10-14T10:51:19.811Z,20.10
2022-10-14T10:54:02.729Z,19.30
2022-10-14T10:56:42.949Z,19.87
2022-10-14T10:59:56.256Z,20.90
2022-10-14T11:03:03.284Z,19.17
2022-10-14T11:05:50.162Z,18.97
2022-10-14T11:09:07.580Z,20.23
2022-10-14T11:12:05.743Z,18.90
2022-10-14T11:17:59.929Z,18.03
2022-10-14T11:20:38.644Z,18.97
2022-10-14T11:23:36.289Z,18.87
2022-10-14T11:26:14.741Z,20.33
2022-10-14T11:28:51.313Z,21.13
2022-10-14T11:31:33.547Z,20.47
2022-10-14T11:34:24.093Z,21.77
2022-10-14T11:37:06.262Z,22.10
2022-10-14T11:39:41.538Z,22.83
2022-10-14T11:42:24.748Z,21.00
2022-10-14T11:45:08.523Z,21.77
2022-10-14T11:47:40.774Z,21.77
2022-10-14T11:50:19.170Z,23.83
2022-10-14T11:52:55.227Z,23.67
2022-10-14T11:55:26.153Z,22.27
2022-10-14T11:58:00.276Z,22.80
2022-10-14T12:00:33.141Z,21.83
2022-10-14T12:03:10.931Z,20.73
2022-10-14T12:05:46.984Z,20.73
2022-10-14T12:08:27.035Z,21.67
2022-10-14T12:11:03.650Z,21.47
2022-10-14T12:13:38.567Z,22.33
2022-10-14T12:16:13.900Z,23.17
2022-10-14T12:18:44.181Z,22.67
2022-10-14T12:21:22.573Z,22.30
2022-10-14T12:23:56.589Z,22.10
2022-10-14T12:26:48.441Z,22.30
2022-10-14T12:29:21.480Z,21.27
2022-10-14T12:31:54.646Z,22.33
2022-10-14T12:34:34.815Z,22.67
2022-10-14T12:37:54.285Z,22.07
2022-10-14T12:40:30.156Z,22.17
2022-10-14T12:43:20.505Z,24.20
2022-10-14T12:45:54.536Z,25.63
2022-10-14T12:48:25.252Z,25.50
2022-10-14T12:50:59.313Z,26.27
2022-10-14T12:53:32.010Z,29.33
2022-10-14T12:56:02.510Z,28.87
2022-10-14T12:58:34.669Z,30.30
2022-10-14T13:01:08.355Z,31.00
2022-10-14T13:03:45.360Z,32.43
2022-10-14T13:06:39.871Z,29.97
2022-10-14T13:09:37.081Z,29.53
2022-10-14T13:12:46.816Z,30.30
2022-10-14T13:15:51.030Z,31.43
2022-10-14T13:18:53.197Z,31.47
2022-10-14T13:21:32.185Z,31.27
2022-10-14T13:24:02.789Z,32.20
2022-10-14T13:26:43.213Z,31.93
2022-10-14T13:29:24.276Z,32.37
2022-10-14T13:32:01.693Z,32.33
2022-10-14T13:34:48.315Z,33.17
2022-10-14T13:37:34.792Z,32.50
2022-10-14T13:40:21.172Z,32.63
2022-10-14T13:42:55.924Z,32.80
2022-10-14T13:45:31.929Z,32.17
2022-10-14T13:48:01.261Z,32.47
2022-10-14T13:50:37.892Z,32.73
2022-10-14T13:53:10.537Z,32.13
2022-10-14T13:55:50.247Z,32.50
2022-10-14T13:58:25.129Z,33.10
2022-10-14T14:01:04.279Z,31.47
2022-10-14T14:03:37.245Z,32.13
2022-10-14T14:06:13.225Z,29.97
2022-10-14T14:08:49.085Z,33.33
2022-10-14T14:11:24.392Z,31.10
2022-10-14T14:14:07.954Z,29.93
2022-10-14T14:16:41.301Z,30.37
2022-10-14T14:19:20.613Z,29.27
2022-10-14T14:21:48.813Z,29.77
2022-10-14T14:24:25.094Z,31.43
2022-10-14T14:26:57.465Z,31.93
2022-10-14T14:29:30.520Z,32.43
2022-10-14T14:32:06.775Z,29.83
2022-10-14T14:34:38.052Z,30.73
2022-10-14T14:40:00.529Z,29.37
2022-10-14T14:42:32.409Z,30.17
2022-10-14T14:45:16.874Z,30.47
2022-10-14T14:47:45.909Z,29.23
2022-10-14T14:50:32.095Z,28.13
2022-10-14T14:53:04.978Z,27.97
2022-10-14T14:55:46.226Z,26.37
2022-10-14T14:58:26.467Z,26.93
2022-10-14T15:00:56.910Z,24.67
2022-10-14T15:03:27.900Z,22.50
2022-10-14T15:06:00.982Z,21.90
2022-10-14T15:08:33.176Z,22.17
2022-10-14T15:11:02.612Z,22.00
2022-10-14T15:13:49.994Z,22.10
2022-10-14T15:16:41.574Z,21.73
2022-10-14T15:19:35.701Z,22.57
2022-10-14T15:22:34.924Z,22.77
2022-10-14T15:25:12.017Z,21.83
2022-10-14T15:27:52.450Z,22.77
2022-10-14T15:30:37.930Z,21.43
2022-10-14T15:33:16.633Z,22.40
2022-10-14T15:35:46.797Z,22.20
2022-10-14T15:38:18.206Z,22.60
2022-10-14T15:40:50.039Z,22.07
2022-10-14T15:43:21.509Z,21.33
2022-10-14T15:46:12.642Z,21.17
2022-10-14T15:48:49.558Z,25.03
2022-10-14T15:51:19.636Z,21.53
2022-10-14T15:53:49.196Z,21.00
2022-10-14T15:56:17.729Z,21.27
2022-10-14T15:58:45.778Z,21.17
2022-10-14T16:01:20.393Z,21.43
2022-10-14T16:03:53.111Z,20.17
2022-10-14T16:06:22.654Z,20.37
2022-10-14T16:08:51.347Z,19.80
2022-10-14T16:11:24.136Z,20.30
2022-10-14T16:13:52.240Z,19.73
2022-10-14T16:16:26.299Z,21.77
2022-10-14T16:18:55.991Z,22.23
2022-10-14T16:21:24.109Z,20.10
2022-10-14T16:23:53.750Z,21.10
2022-10-14T16:26:21.886Z,20.80
2022-10-14T16:28:50.121Z,20.23
2022-10-14T16:31:18.765Z,21.03
2022-10-14T16:33:47.128Z,21.13
2022-10-14T16:36:17.469Z,20.23
2022-10-14T16:38:45.849Z,23.03
2022-10-14T16:41:14.115Z,22.93
2022-10-14T16:43:42.593Z,21.37
2022-10-14T16:46:15.482Z,22.53
2022-10-14T16:48:44.529Z,22.50
2022-10-14T16:51:15.362Z,21.87
2022-10-14T16:53:46.713Z,23.07
2022-10-14T16:56:35.116Z,27.40
2022-10-14T16:59:04.061Z,27.07
2022-10-14T17:01:32.802Z,26.97
2022-10-14T17:04:01.118Z,25.80
2022-10-14T17:06:29.214Z,26.27
2022-10-14T17:08:58.713Z,26.93
2022-10-14T17:11:28.087Z,26.73
2022-10-14T17:13:57.959Z,25.10
2022-10-14T17:16:27.062Z,26.73
2022-10-14T17:18:55.647Z,26.40
2022-10-14T17:21:24.284Z,27.23
2022-10-14T17:23:52.363Z,27.23
2022-10-14T17:26:22.060Z,28.00
2022-10-14T17:28:50.666Z,26.57
2022-10-14T17:31:22.867Z,28.10
2022-10-14T17:33:52.596Z,27.23
2022-10-14T17:36:23.233Z,28.53
2022-10-14T17:38:53.120Z,29.13
2022-10-14T17:41:23.497Z,27.90
2022-10-14T17:43:52.050Z,27.10
2022-10-14T17:46:23.465Z,28.30
2022-10-14T17:48:54.284Z,27.87
2022-10-14T17:51:25.064Z,26.70
2022-10-14T17:53:58.366Z,25.40
2022-10-14T17:56:30.359Z,25.77
2022-10-14T17:59:00.741Z,24.57
2022-10-14T18:01:37.400Z,23.33
2022-10-14T18:04:07.997Z,24.77
2022-10-14T18:06:37.263Z,23.57
2022-10-14T18:09:09.045Z,24.63
2022-10-14T18:12:07.820Z,23.27
2022-10-14T18:14:31.300Z,24.77
2022-10-14T18:16:59.847Z,25.63
2022-10-14T18:19:28.434Z,24.77
2022-10-14T18:21:56.515Z,23.80
2022-10-14T18:24:24.770Z,24.17
2022-10-14T18:26:54.651Z,23.27
2022-10-14T18:29:24.315Z,23.77
2022-10-14T18:34:27.265Z,22.00
2022-10-14T18:36:57.607Z,20.67
2022-10-14T18:39:26.994Z,18.27
2022-10-14T18:41:56.879Z,19.27
2022-10-14T18:44:24.897Z,18.70
2022-10-14T18:46:53.380Z,18.60
2022-10-14T18:49:21.660Z,18.77
2022-10-14T18:51:50.560Z,18.63
2022-10-14T18:54:22.232Z,17.33
2022-10-14T18:56:50.510Z,19.60
2022-10-14T18:59:23.074Z,20.00
2022-10-14T19:01:53.480Z,18.87
2022-10-14T19:04:26.830Z,21.23
2022-10-14T19:06:55.421Z,19.40
2022-10-14T19:09:29.654Z,19.23
2022-10-14T19:11:59.279Z,19.87
2022-10-14T19:14:31.738Z,20.93
2022-10-14T19:16:59.864Z,20.83
2022-10-14T19:19:28.049Z,20.87
2022-10-14T19:21:59.489Z,20.37
2022-10-14T19:24:27.998Z,21.13
2022-10-14T19:26:58.252Z,22.40
2022-10-14T19:29:27.723Z,21.07
2022-10-14T19:31:55.862Z,22.37
2022-10-14T19:34:27.064Z,22.57
2022-10-14T19:36:55.544Z,23.17
2022-10-14T19:39:23.676Z,23.73
2022-10-14T19:41:51.757Z,24.27
2022-10-14T19:44:20.220Z,23.47
2022-10-14T19:46:49.698Z,23.13
2022-10-14T19:49:18.059Z,24.57
2022-10-14T19:51:46.172Z,25.60
2022-10-14T19:54:15.184Z,24.63
2022-10-14T19:56:43.917Z,24.53
2022-10-14T19:59:13.484Z,26.23
2022-10-14T20:01:42.635Z,26.10
2022-10-14T20:04:12.566Z,26.97
2022-10-14T20:06:41.944Z,25.83
2022-10-14T20:09:13.546Z,26.93
2022-10-14T20:11:42.236Z,26.97
2022-10-14T20:14:10.346Z,26.63
2022-10-14T20:16:38.521Z,25.70
2022-10-14T20:19:06.972Z,25.83
2022-10-14T20:21:36.422Z,26.17
2022-10-14T20:24:05.083Z,26.03
2022-10-14T20:26:33.250Z,26.43
2022-10-14T20:29:01.398Z,26.10
2022-10-14T20:31:29.491Z,26.70
2022-10-14T20:33:58.378Z,28.50
2022-10-14T20:36:26.526Z,26.63
2022-10-14T20:38:56.349Z,28.30
2022-10-14T20:41:26.781Z,26.67
2022-10-14T20:43:56.418Z,27.80
2022-10-14T20:46:25.450Z,27.10
2022-10-14T20:48:57.340Z,26.03
2022-10-14T20:51:25.592Z,26.73
2022-10-14T20:54:01.811Z,27.37
2022-10-14T20:56:33.570Z,27.60
2022-10-14T20:59:04.859Z,27.70
2022-10-14T21:01:33.892Z,27.50
2022-10-14T21:04:03.314Z,27.93
2022-10-14T21:06:32.297Z,27.67
2022-10-14T21:09:02.368Z,29.90
2022-10-14T21:11:30.537Z,28.53
2022-10-14T21:14:01.613Z,28.17
2022-10-14T21:16:31.677Z,26.53
2022-10-14T21:19:02.894Z,28.23
2022-10-14T21:21:35.729Z,26.20
2022-10-14T21:24:06.318Z,27.17
2022-10-14T21:26:34.707Z,26.97
2022-10-14T21:29:04.470Z,27.73
2022-10-14T21:31:33.576Z,28.30
2022-10-14T21:34:06.057Z,29.80
2022-10-14T21:36:35.697Z,29.23
2022-10-14T21:39:11.584Z,27.60
2022-10-14T21:41:46.867Z,28.20
2022-10-14T21:44:19.718Z,28.17
2022-10-14T21:46:48.833Z,29.73
2022-10-14T21:49:22.783Z,27.27
2022-10-14T21:51:58.595Z,30.10
2022-10-14T21:54:28.620Z,28.27
2022-10-14T21:59:30.601Z,29.47
2022-10-14T22:01:59.256Z,29.77
2022-10-14T22:04:28.207Z,29.43
2022-10-14T22:06:56.463Z,30.90
2022-10-14T22:09:24.935Z,30.43
2022-10-14T22:11:58.145Z,30.40
2022-10-14T22:14:29.312Z,32.27
2022-10-14T22:16:57.663Z,30.50
2022-10-14T22:19:26.604Z,32.00
2022-10-14T22:21:55.104Z,30.83
2022-10-14T22:24:23.525Z,31.63
2022-10-14T22:26:52.710Z,32.37
2022-10-14T22:29:22.639Z,32.33
2022-10-14T22:31:50.969Z,33.73
2022-10-14T22:34:19.742Z,33.60
2022-10-14T22:36:48.209Z,32.73
2022-10-14T22:39:18.686Z,32.67
2022-10-14T22:41:49.841Z,33.73
2022-10-14T22:44:23.195Z,32.60
2022-10-14T22:49:33.928Z,33.97
2022-10-14T22:52:18.817Z,34.77
2022-10-14T22:55:02.035Z,35.67
2022-10-14T22:57:49.809Z,35.97
2022-10-14T23:00:27.148Z,35.57
2022-10-14T23:03:01.309Z,35.50
2022-10-14T23:05:33.364Z,36.67
2022-10-14T23:08:19.016Z,36.67
2022-10-14T23:10:50.477Z,35.53
2022-10-14T23:13:23.961Z,36.47
2022-10-14T23:16:14.068Z,40.30
2022-10-14T23:18:50.111Z,36.60
2022-10-14T23:21:30.040Z,37.50
2022-10-14T23:24:01.003Z,39.57
2022-10-14T23:26:39.878Z,38.37
2022-10-14T23:29:12.897Z,41.13
2022-10-14T23:31:47.018Z,40.00
2022-10-14T23:34:18.883Z,40.43
2022-10-14T23:36:52.175Z,40.80
2022-10-14T23:39:30.524Z,38.77
2022-10-14T23:42:02.534Z,40.93
2022-10-14T23:44:35.433Z,41.23
2022-10-14T23:47:06.168Z,42.53
2022-10-14T23:49:43.562Z,40.17
2022-10-14T23:52:12.104Z,41.57
2022-10-14T23:54:42.911Z,40.93
2022-10-14T23:57:12.644Z,39.97
2022-10-14T23:59:40.988Z,41.53
